Time;durP1;ratioP1;P1;durP2;ratioP2;P2;SDS_P1;SDS_P2;PMS_P1;PMS_P2;Temp;Humidity;BMP_temperature;BMP_pressure;BME280_temperature;BME280_humidity;BME280_pressure;Samples;Min_cycle;Max_cycle;Signal;HPM_P1;HPM_P2
2020/12/25 00:01:25;;;;;;;9.88;6.35;;;;;;;19.06;54.12;102197.78;4807010;29;20062;-74
2020/12/25 00:03:50;;;;;;;11.60;5.75;;;;;;;19.07;54.31;102225.75;4806662;29;20070;-74
2020/12/25 00:06:16;;;;;;;9.27;4.88;;;;;;;19.06;53.92;102232.75;4819050;29;20088;-74
2020/12/25 00:08:41;;;;;;;7.47;4.95;;;;;;;19.05;54.09;102241.47;4805958;29;20042;-74
2020/12/25 00:11:06;;;;;;;7.15;4.72;;;;;;;19.05;54.20;102248.44;4807333;29;20755;-74
2020/12/25 00:13:32;;;;;;;8.02;4.57;;;;;;;19.01;54.17;102252.75;4805998;29;20031;-74
2020/12/25 00:15:57;;;;;;;6.43;4.60;;;;;;;19.01;54.02;102258.00;4820631;29;20027;-74
2020/12/25 00:18:23;;;;;;;11.80;5.13;;;;;;;18.97;54.00;102265.78;4805312;29;20045;-74
2020/12/25 00:20:52;;;;;;;6.65;4.95;;;;;;;18.97;54.00;102269.28;4805737;29;20031;-75
2020/12/25 00:23:18;;;;;;;8.40;4.97;;;;;;;18.97;53.89;102265.78;4788161;29;20030;-74
2020/12/25 00:25:44;;;;;;;8.40;5.43;;;;;;;18.97;54.11;102261.41;4805986;29;20031;-74
2020/12/25 00:28:09;;;;;;;8.27;4.57;;;;;;;18.92;53.79;102243.03;4805261;29;20089;-74
2020/12/25 00:30:35;;;;;;;7.47;4.85;;;;;;;18.95;53.94;102257.91;4790626;29;20050;-74
2020/12/25 00:33:00;;;;;;;8.52;5.40;;;;;;;18.94;54.02;102244.78;4782701;29;20037;-74
2020/12/25 00:35:25;;;;;;;6.40;3.78;;;;;;;18.91;54.04;102238.63;4804451;29;20077;-74
2020/12/25 00:37:51;;;;;;;6.93;4.55;;;;;;;18.92;53.76;102247.38;4789733;29;20058;-74
2020/12/25 00:40:16;;;;;;;6.72;4.93;;;;;;;18.90;53.87;102251.72;4806603;29;20114;-74
2020/12/25 00:42:41;;;;;;;7.68;3.97;;;;;;;18.90;53.73;102267.44;4805655;29;20498;-75
2020/12/25 00:45:07;;;;;;;7.85;4.70;;;;;;;18.89;54.03;102278.78;4805456;29;20475;-74
2020/12/25 00:47:32;;;;;;;8.10;4.57;;;;;;;18.88;54.00;102266.53;4799349;29;20093;-74
2020/12/25 00:49:57;;;;;;;6.38;4.40;;;;;;;18.87;53.86;102260.41;4805756;29;20070;-75
2020/12/25 00:52:24;;;;;;;5.65;4.45;;;;;;;18.84;53.90;102260.34;4795594;29;20059;-75
2020/12/25 00:54:50;;;;;;;9.05;5.22;;;;;;;18.84;53.83;102251.59;4805204;29;20066;-75
2020/12/25 00:57:15;;;;;;;7.22;3.70;;;;;;;18.79;53.71;102250.66;4801730;29;20441;-75
2020/12/25 00:59:41;;;;;;;6.53;3.85;;;;;;;18.84;53.95;102260.34;4817109;29;20095;-75
2020/12/25 01:02:06;;;;;;;9.20;3.92;;;;;;;18.82;54.04;102255.97;4797177;29;20051;-75
2020/12/25 01:04:31;;;;;;;6.10;3.90;;;;;;;18.86;53.79;102268.25;4790307;29;20059;-75
2020/12/25 01:06:57;;;;;;;6.38;3.55;;;;;;;18.83;53.73;102269.06;4787421;29;20122;-74
2020/12/25 01:09:24;;;;;;;4.75;4.10;;;;;;;18.81;53.80;102259.44;4806027;29;20042;-74
2020/12/25 01:11:50;;;;;;;4.97;3.22;;;;;;;18.81;53.86;102262.94;4775102;29;20055;-75
2020/12/25 01:14:15;;;;;;;5.97;3.22;;;;;;;18.80;53.97;102265.53;4803363;29;20031;-75
2020/12/25 01:16:40;;;;;;;5.43;3.53;;;;;;;18.78;53.92;102264.63;4805085;29;20559;-75
2020/12/25 01:19:06;;;;;;;7.53;3.83;;;;;;;18.80;53.73;102274.28;4804204;29;20046;-75
2020/12/25 01:21:31;;;;;;;8.60;4.35;;;;;;;18.76;53.81;102280.31;4803954;29;20039;-75
2020/12/25 01:23:56;;;;;;;4.82;3.20;;;;;;;18.78;53.80;102296.97;4786139;30;20391;-75
2020/12/25 01:26:22;;;;;;;7.45;3.15;;;;;;;18.73;53.81;102295.09;4796602;29;20498;-74
2020/12/25 01:28:47;;;;;;;5.55;3.25;;;;;;;18.73;53.75;102295.97;4805238;29;20039;-74
2020/12/25 01:31:12;;;;;;;4.70;3.25;;;;;;;18.74;53.71;102276.78;4808568;29;20035;-75
2020/12/25 01:33:38;;;;;;;6.93;3.75;;;;;;;18.74;53.89;102281.16;4833299;29;20094;-74
2020/12/25 01:36:04;;;;;;;5.65;3.53;;;;;;;18.74;53.98;102282.03;4822921;29;20039;-75
2020/12/25 01:38:30;;;;;;;4.70;3.05;;;;;;;18.72;53.45;102285.47;4787508;30;20031;-75
2020/12/25 01:40:55;;;;;;;6.43;3.58;;;;;;;18.72;53.68;102296.84;4806883;29;20033;-75
2020/12/25 01:43:21;;;;;;;5.53;2.75;;;;;;;18.73;53.84;102295.09;4801901;29;20126;-75
2020/12/25 01:45:47;;;;;;;3.80;2.85;;;;;;;18.72;53.65;102299.47;4757723;30;20027;-74
2020/12/25 01:48:14;;;;;;;5.20;3.00;;;;;;;18.70;53.57;102292.41;4789062;29;20115;-74
2020/12/25 01:50:40;;;;;;;4.28;2.97;;;;;;;18.72;53.76;102306.44;4789921;29;20061;-75
2020/12/25 01:53:08;;;;;;;4.20;2.97;;;;;;;18.73;53.78;102311.72;4789076;29;20138;-75
2020/12/25 01:55:35;;;;;;;3.90;2.78;;;;;;;18.69;53.85;102309.91;4805395;29;20049;-75
2020/12/25 01:58:01;;;;;;;5.30;3.20;;;;;;;18.69;53.71;102312.53;4800920;29;20030;-75
2020/12/25 02:00:28;;;;;;;4.93;2.60;;;;;;;18.66;53.79;102307.22;4786314;29;20039;-75
2020/12/25 02:02:53;;;;;;;4.63;3.15;;;;;;;18.65;53.59;102315.94;4801874;29;20051;-75
2020/12/25 02:05:21;;;;;;;5.55;2.47;;;;;;;18.66;53.71;102319.44;4791757;29;20035;-75
2020/12/25 02:07:46;;;;;;;3.83;2.47;;;;;;;18.67;53.59;102329.97;4819013;29;20507;-76
2020/12/25 02:10:12;;;;;;;4.40;2.63;;;;;;;18.67;53.59;102344.78;4815161;29;20066;-74
2020/12/25 02:12:38;;;;;;;5.32;3.20;;;;;;;18.67;53.56;102353.53;4788159;29;20483;-74
2020/12/25 02:15:07;;;;;;;3.50;2.65;;;;;;;18.67;53.67;102357.91;4802837;29;20096;-75
2020/12/25 02:17:33;;;;;;;3.78;2.78;;;;;;;18.65;53.44;102351.75;4802494;29;20121;-74
2020/12/25 02:20:00;;;;;;;6.07;3.05;;;;;;;18.62;53.43;102342.09;4818217;29;20180;-75
2020/12/25 02:22:26;;;;;;;3.80;2.55;;;;;;;18.65;53.68;102350.00;4803860;29;20528;-75
2020/12/25 02:24:51;;;;;;;4.72;2.58;;;;;;;18.64;53.54;102355.22;4819432;29;20042;-74
2020/12/25 02:27:16;;;;;;;3.95;2.30;;;;;;;18.64;53.43;102358.72;4788269;29;20038;-74
2020/12/25 02:29:42;;;;;;;5.78;3.20;;;;;;;18.63;53.44;102359.56;4788053;29;20039;-74
2020/12/25 02:32:07;;;;;;;3.30;2.10;;;;;;;18.60;53.60;102350.75;4788808;29;20054;-75
2020/12/25 02:34:32;;;;;;;3.75;2.72;;;;;;;18.61;53.58;102349.91;4803537;29;20067;-74
2020/12/25 02:36:58;;;;;;;3.75;2.35;;;;;;;18.61;53.39;102356.03;4776396;29;20043;-75
2020/12/25 02:39:23;;;;;;;3.40;2.10;;;;;;;18.57;53.35;102347.19;4804001;29;20044;-75
2020/12/25 02:41:48;;;;;;;3.25;2.42;;;;;;;18.61;53.51;102363.91;4786123;29;20121;-75
2020/12/25 02:44:14;;;;;;;5.05;3.03;;;;;;;18.61;53.46;102373.50;4800819;29;20041;-74
2020/12/25 02:46:39;;;;;;;3.58;2.40;;;;;;;18.52;53.68;102367.19;4804613;29;20126;-74
2020/12/25 02:49:04;;;;;;;3.10;1.98;;;;;;;18.56;53.34;102363.75;4805462;29;20815;-74
2020/12/25 02:51:30;;;;;;;4.82;2.15;;;;;;;18.59;53.43;102378.69;4792541;29;20039;-75
2020/12/25 02:53:55;;;;;;;4.82;2.58;;;;;;;18.55;53.43;102369.88;4807092;29;20071;-74
2020/12/25 02:56:21;;;;;;;3.15;2.00;;;;;;;18.57;53.24;102368.16;4813027;29;20122;-75
2020/12/25 02:58:46;;;;;;;3.83;2.10;;;;;;;18.59;53.42;102369.94;4788491;29;20070;-75
2020/12/25 03:01:14;;;;;;;4.57;2.45;;;;;;;18.55;53.30;102372.50;4799755;29;20035;-74
2020/12/25 03:03:39;;;;;;;3.95;2.00;;;;;;;18.57;53.25;102365.53;4808514;29;20034;-74
2020/12/25 03:06:05;;;;;;;4.03;2.08;;;;;;;18.55;53.40;102359.41;4808766;29;20447;-75
2020/12/25 03:08:32;;;;;;;4.82;2.28;;;;;;;18.55;53.23;102351.56;4794518;29;20455;-75
2020/12/25 03:10:57;;;;;;;4.15;2.30;;;;;;;18.48;53.27;102340.91;4808999;29;20039;-75
2020/12/25 03:13:23;;;;;;;4.05;1.95;;;;;;;18.51;53.25;102338.34;4808429;29;20387;-74
2020/12/25 03:15:48;;;;;;;2.83;1.63;;;;;;;18.51;53.24;102346.22;4807146;29;20067;-74
2020/12/25 03:18:14;;;;;;;3.70;2.10;;;;;;;18.53;53.15;102355.88;4803506;29;20529;-74
2020/12/25 03:20:39;;;;;;;3.05;1.80;;;;;;;18.51;53.36;102351.44;4814538;29;20027;-75
2020/12/25 03:23:05;;;;;;;3.13;2.60;;;;;;;18.53;53.17;102358.50;4821859;29;20035;-74
2020/12/25 03:25:30;;;;;;;4.05;2.08;;;;;;;18.47;53.16;102349.63;4789093;30;20054;-74
2020/12/25 03:27:55;;;;;;;2.58;1.80;;;;;;;18.54;53.22;102356.75;4793495;29;20053;-74
2020/12/25 03:30:24;;;;;;;3.15;1.75;;;;;;;18.52;53.02;102355.84;4808172;29;20139;-74
2020/12/25 03:32:49;;;;;;;4.40;2.42;;;;;;;18.49;53.04;102351.41;4806106;29;20031;-75
2020/12/25 03:35:15;;;;;;;2.50;1.55;;;;;;;18.48;53.11;102348.75;4806608;29;20514;-74
2020/12/25 03:37:40;;;;;;;3.05;1.48;;;;;;;18.50;53.23;102350.56;4807972;29;20509;-75
2020/12/25 03:40:06;;;;;;;2.58;1.60;;;;;;;18.48;52.92;102348.75;4776749;29;20030;-75
2020/12/25 03:42:31;;;;;;;3.97;1.85;;;;;;;18.46;53.10;102358.31;4779826;30;20042;-75
2020/12/25 03:44:56;;;;;;;2.88;1.77;;;;;;;18.47;52.94;102357.47;4787515;29;20515;-75
2020/12/25 03:47:26;;;;;;;2.80;1.75;;;;;;;18.50;53.06;102378.50;4793470;29;20460;-75
2020/12/25 03:49:54;;;;;;;3.22;1.70;;;;;;;18.49;53.01;102375.00;4804121;29;20038;-75
2020/12/25 03:52:21;;;;;;;3.88;1.77;;;;;;;18.48;52.83;102381.09;4807723;29;20039;-76
2020/12/25 03:54:46;;;;;;;2.95;1.83;;;;;;;18.46;53.05;102380.16;4803461;29;20540;-75
2020/12/25 03:57:12;;;;;;;4.78;1.70;;;;;;;18.46;52.92;102381.91;4792272;29;20031;-75
2020/12/25 03:59:37;;;;;;;3.83;1.73;;;;;;;18.44;52.56;102387.09;4803864;29;20131;-71
2020/12/25 04:02:03;;;;;;;3.30;1.67;;;;;;;18.44;52.86;102389.72;4801833;29;20446;-70
2020/12/25 04:04:28;;;;;;;3.13;1.83;;;;;;;18.40;52.87;102382.69;4804757;29;20415;-71
2020/12/25 04:06:53;;;;;;;2.33;1.75;;;;;;;18.44;53.07;102392.34;4805253;29;20055;-71
2020/12/25 04:09:19;;;;;;;3.03;1.70;;;;;;;18.43;52.94;102395.84;4804783;29;20035;-71
2020/12/25 04:11:44;;;;;;;2.42;1.35;;;;;;;18.43;52.70;102392.34;4784238;30;20047;-71
2020/12/25 04:14:09;;;;;;;3.83;1.60;;;;;;;18.42;52.90;102395.81;4802540;29;20035;-71
2020/12/25 04:16:35;;;;;;;2.38;1.50;;;;;;;18.36;52.83;102386.09;4804994;29;20050;-71
2020/12/25 04:19:00;;;;;;;2.47;1.63;;;;;;;18.42;52.84;102406.28;4819405;29;20057;-71
2020/12/25 04:21:25;;;;;;;3.20;2.10;;;;;;;18.40;53.05;102410.63;4807353;29;20513;-71
2020/12/25 04:23:51;;;;;;;3.40;1.80;;;;;;;18.39;53.04;102412.34;4804078;29;20478;-71
2020/12/25 04:26:18;;;;;;;3.05;1.50;;;;;;;18.40;52.86;102421.09;4819356;29;20038;-71
2020/12/25 04:28:44;;;;;;;3.25;1.67;;;;;;;18.34;52.94;102419.22;4806074;29;20074;-71
2020/12/25 04:31:09;;;;;;;2.97;1.65;;;;;;;18.36;53.09;102420.13;4803943;29;20134;-71
2020/12/25 04:33:35;;;;;;;3.25;1.90;;;;;;;18.37;52.92;102428.88;4788071;29;20031;-71
2020/12/25 04:36:00;;;;;;;2.90;1.75;;;;;;;18.37;52.89;102421.00;4803460;29;20060;-71
2020/12/25 04:38:28;;;;;;;3.88;1.65;;;;;;;18.31;52.98;102427.00;4806685;29;20126;-71
2020/12/25 04:40:54;;;;;;;2.33;1.40;;;;;;;18.35;52.77;102430.56;4803999;29;20426;-71
2020/12/25 04:43:19;;;;;;;3.33;1.67;;;;;;;18.37;52.75;102437.63;4820503;29;20069;-71
2020/12/25 04:45:45;;;;;;;2.22;1.40;;;;;;;18.35;52.66;102428.84;4803739;29;20076;-71
2020/12/25 04:48:12;;;;;;;2.70;1.30;;;;;;;18.36;52.58;102434.97;4799155;29;20031;-71
2020/12/25 04:50:37;;;;;;;3.08;1.30;;;;;;;18.38;52.51;102444.63;4803874;29;20495;-71
2020/12/25 04:53:03;;;;;;;3.35;1.75;;;;;;;18.35;52.46;102438.44;4805573;29;20049;-71
2020/12/25 04:55:28;;;;;;;3.47;1.63;;;;;;;18.35;52.62;102433.19;4786907;29;20123;-71
2020/12/25 04:57:57;;;;;;;1.88;1.05;;;;;;;18.33;52.76;102432.28;4778843;29;20056;-71
2020/12/25 05:00:22;;;;;;;2.63;1.52;;;;;;;18.32;52.63;102427.88;4803042;29;20560;-71
2020/12/25 05:02:50;;;;;;;2.67;1.20;;;;;;;18.34;53.00;102428.81;4783879;29;20566;-70
2020/12/25 05:05:16;;;;;;;3.20;1.40;;;;;;;18.33;52.86;102421.78;4802069;29;20050;-71
2020/12/25 05:07:44;;;;;;;2.95;1.45;;;;;;;18.32;52.69;102428.75;4801625;29;20084;-71
2020/12/25 05:10:09;;;;;;;3.33;1.92;;;;;;;18.31;52.74;102433.97;4800627;29;20393;-72
2020/12/25 05:12:36;;;;;;;2.08;1.42;;;;;;;18.32;52.72;102444.47;4801970;29;20047;-71
2020/12/25 05:15:08;;;;;;;2.78;1.17;;;;;;;18.31;52.65;102450.56;4802558;29;20053;-71
2020/12/25 05:17:34;;;;;;;1.98;1.10;;;;;;;18.30;52.72;102456.69;4799952;29;20039;-71
2020/12/25 05:20:02;;;;;;;1.90;0.95;;;;;;;18.30;52.83;102454.06;4801210;29;20031;-71
2020/12/25 05:22:27;;;;;;;2.00;1.17;;;;;;;18.27;53.20;102446.13;4804153;29;20560;-71
2020/12/25 05:24:52;;;;;;;2.92;1.42;;;;;;;18.27;52.81;102450.50;4789407;29;20046;-71
2020/12/25 05:27:18;;;;;;;2.60;1.58;;;;;;;18.26;53.00;102448.72;4819260;29;20501;-71
2020/12/25 05:29:47;;;;;;;2.75;1.75;;;;;;;18.27;52.71;102456.63;4786265;29;20092;-71
2020/12/25 05:32:13;;;;;;;2.33;1.50;;;;;;;18.26;53.01;102444.38;4804188;29;20397;-71
2020/12/25 05:34:43;;;;;;;2.30;1.40;;;;;;;18.26;52.82;102459.19;4803430;29;20491;-70
2020/12/25 05:37:08;;;;;;;2.58;1.40;;;;;;;18.29;52.94;102464.50;4802524;29;20042;-71
2020/12/25 05:39:36;;;;;;;4.75;1.38;;;;;;;18.25;52.77;102465.28;4786164;29;20046;-71
2020/12/25 05:42:05;;;;;;;2.28;1.17;;;;;;;18.25;52.51;102478.38;4801831;29;20577;-71
2020/12/25 05:44:38;;;;;;;2.45;1.10;;;;;;;18.21;52.75;102467.81;4802140;29;20031;-71
2020/12/25 05:47:04;;;;;;;;;;;;;;;18.25;52.71;102471.41;4804343;29;20498;-70
2020/12/25 05:49:30;;;;;;;3.58;1.38;;;;;;;18.26;52.78;102470.56;4787913;29;19928;-71
2020/12/25 05:51:56;;;;;;;2.65;1.38;;;;;;;18.25;52.69;102439.09;4789718;29;20142;-71
2020/12/25 05:54:28;;;;;;;3.92;1.38;;;;;;;18.21;52.82;102449.50;4804888;29;20062;-70
2020/12/25 05:56:58;;;;;;;2.10;1.10;;;;;;;18.20;52.70;102444.22;4803578;29;20031;-70
2020/12/25 05:59:23;;;;;;;2.63;1.15;;;;;;;18.21;52.50;102448.59;4801608;29;20110;-73
2020/12/25 06:01:52;;;;;;;2.42;1.10;;;;;;;18.21;52.83;102448.59;4800463;29;20129;-71
2020/12/25 06:04:18;;;;;;;3.65;1.15;;;;;;;18.19;52.73;102451.19;4798017;29;20114;-71
2020/12/25 06:06:44;;;;;;;2.60;1.00;;;;;;;18.20;52.70;102457.31;4798364;29;20134;-71
2020/12/25 06:09:14;;;;;;;2.00;1.10;;;;;;;18.20;52.42;102460.81;4804484;29;20061;-71
2020/12/25 06:11:46;;;;;;;1.48;0.93;;;;;;;18.15;52.80;102451.13;4816417;29;20033;-72
2020/12/25 06:14:11;;;;;;;2.53;1.13;;;;;;;18.15;52.53;102458.97;4803371;29;20117;-73
2020/12/25 06:16:39;;;;;;;3.45;1.20;;;;;;;18.17;52.68;102466.00;4798503;29;20126;-72
2020/12/25 06:19:14;;;;;;;4.55;1.52;;;;;;;18.16;52.53;102466.84;4802280;29;20099;-72
2020/12/25 06:21:49;;;;;;;1.50;0.90;;;;;;;18.17;52.68;102471.25;4815068;29;20035;-73
2020/12/25 06:24:18;;;;;;;1.67;1.17;;;;;;;18.16;52.94;102487.81;4815458;29;20803;-73
2020/12/25 06:26:43;;;;;;;4.78;1.77;;;;;;;18.15;52.70;102486.03;4803570;29;20498;-72
2020/12/25 06:29:15;;;;;;;3.78;1.27;;;;;;;18.15;52.56;102491.28;4805630;29;20047;-73
2020/12/25 06:31:42;;;;;;;2.00;1.08;;;;;;;18.16;52.53;102494.78;4797064;29;20121;-73
2020/12/25 06:34:08;;;;;;;2.53;1.20;;;;;;;18.15;52.61;102493.88;4806131;29;20138;-70
2020/12/25 06:36:34;;;;;;;2.15;1.38;;;;;;;18.13;52.65;102487.72;4806304;29;20538;-73
2020/12/25 06:39:03;;;;;;;3.08;1.38;;;;;;;18.13;52.70;102489.47;4809285;29;20482;-73
2020/12/25 06:41:29;;;;;;;1.80;0.93;;;;;;;18.14;52.58;102493.84;4805000;29;20034;-72
2020/12/25 06:43:55;;;;;;;2.65;1.17;;;;;;;18.12;52.70;102496.44;4805850;29;20376;-73
2020/12/25 06:46:33;;;;;;;1.73;1.02;;;;;;;18.13;52.41;102489.47;4806768;29;20027;-73
2020/12/25 06:49:03;;;;;;;1.70;0.90;;;;;;;18.10;52.57;102485.03;4807681;29;20083;-73
2020/12/25 06:51:29;;;;;;;2.97;1.13;;;;;;;18.14;52.40;102494.72;4806971;29;20035;-73
2020/12/25 06:53:57;;;;;;;1.52;0.80;;;;;;;18.13;52.29;102489.47;4806277;29;20087;-73
2020/12/25 06:56:23;;;;;;;2.05;1.00;;;;;;;18.08;52.59;102488.47;4797424;29;20038;-71
2020/12/25 06:58:51;;;;;;;1.92;1.05;;;;;;;18.10;52.63;102508.59;4805166;29;20448;-73
2020/12/25 07:01:33;;;;;;;2.58;1.10;;;;;;;18.12;52.20;102517.38;4805702;29;20087;-72
2020/12/25 07:03:59;;;;;;;2.85;1.00;;;;;;;18.13;52.28;102519.16;4805822;29;20057;-73
2020/12/25 07:06:29;;;;;;;2.42;0.95;;;;;;;18.12;52.27;102551.41;4811963;29;20058;-73
2020/12/25 07:08:54;;;;;;;2.83;1.25;;;;;;;18.15;52.48;102568.94;4806427;29;20073;-73
2020/12/25 07:11:20;;;;;;;1.40;1.00;;;;;;;18.14;52.21;102560.19;4802036;29;20059;-77
2020/12/25 07:13:46;;;;;;;5.00;1.33;;;;;;;18.16;52.14;102566.34;4806706;29;20109;-73
2020/12/25 07:16:11;;;;;;;3.40;1.23;;;;;;;18.18;52.34;102568.97;4808101;29;20124;-72
2020/12/25 07:18:37;;;;;;;4.43;1.23;;;;;;;18.35;51.80;102561.53;4807181;29;20066;-72
2020/12/25 07:21:06;;;;;;;2.75;1.15;;;;;;;18.38;52.07;102543.25;4804808;29;20041;-79
2020/12/25 07:23:31;;;;;;;4.22;1.35;;;;;;;18.40;52.19;102541.56;4807558;29;20034;-77
2020/12/25 07:25:59;;;;;;;3.97;1.30;;;;;;;18.51;52.12;102542.69;4791173;29;20041;-80
2020/12/25 07:28:26;;;;;;;3.70;1.10;;;;;;;18.51;51.94;102527.84;4807508;29;20527;-77
2020/12/25 07:30:53;;;;;;;5.22;1.55;;;;;;;18.55;51.94;102531.44;4807292;29;20035;-76
2020/12/25 07:33:19;;;;;;;2.75;1.20;;;;;;;18.62;52.08;102541.22;4806011;29;20095;-76
2020/12/25 07:35:45;;;;;;;3.95;1.10;;;;;;;18.68;51.94;102543.09;4806421;29;20050;-77
2020/12/25 07:38:15;;;;;;;4.38;1.23;;;;;;;18.64;52.15;102555.25;4802937;29;20039;-77
2020/12/25 07:40:42;;;;;;;1.83;1.13;;;;;;;18.61;52.38;102556.91;4799734;29;20034;-76
2020/12/25 07:43:08;;;;;;;3.38;1.10;;;;;;;18.68;52.54;102543.97;4802912;29;20096;-75
2020/12/25 07:45:35;;;;;;;2.08;1.05;;;;;;;18.78;52.53;102553.78;4790860;29;20042;-75
2020/12/25 07:48:06;;;;;;;3.38;1.13;;;;;;;18.82;52.45;102555.66;4820801;29;20502;-75
2020/12/25 07:50:44;;;;;;;4.63;1.17;;;;;;;18.84;52.47;102558.25;4819805;29;20043;-74
2020/12/25 07:53:17;;;;;;;2.35;1.10;;;;;;;18.89;52.57;102557.53;4806785;29;20119;-75
2020/12/25 07:55:49;;;;;;;2.03;0.93;;;;;;;18.81;52.65;102553.88;4785489;29;20046;-75
2020/12/25 07:58:16;;;;;;;3.65;1.25;;;;;;;18.80;52.84;102559.06;4805509;29;20030;-74
2020/12/25 08:00:42;;;;;;;3.00;1.42;;;;;;;18.82;52.59;102557.38;4805252;29;20066;-74
2020/12/25 08:03:09;;;;;;;3.47;1.48;;;;;;;18.80;52.72;102559.97;4805521;29;20123;-75
2020/12/25 08:05:34;;;;;;;1.88;1.08;;;;;;;18.75;52.84;102553.72;4803427;29;20050;-75
2020/12/25 08:08:01;;;;;;;1.92;0.85;;;;;;;18.85;52.81;102571.41;4805621;29;20107;-74
2020/12/25 08:10:27;;;;;;;3.30;0.88;;;;;;;18.79;52.68;102562.53;4806650;29;20042;-75
2020/12/25 08:12:57;;;;;;;2.22;0.80;;;;;;;18.76;52.80;102580.81;4798120;29;20030;-77
2020/12/25 08:15:24;;;;;;;3.70;1.23;;;;;;;18.82;52.91;102584.47;4805521;29;20038;-74
2020/12/25 08:17:51;;;;;;;2.15;1.30;;;;;;;18.85;52.58;102579.28;4807006;29;20035;-74
2020/12/25 08:20:17;;;;;;;4.30;1.00;;;;;;;18.81;52.83;102569.59;4807342;29;20053;-74
2020/12/25 08:22:42;;;;;;;1.85;0.90;;;;;;;18.79;52.68;102568.69;4807425;29;20542;-74
2020/12/25 08:25:08;;;;;;;3.38;1.15;;;;;;;18.87;52.64;102579.31;4821284;29;20031;-75
2020/12/25 08:27:36;;;;;;;2.00;0.82;;;;;;;18.79;52.48;102563.44;4806279;29;20035;-74
2020/12/25 08:30:04;;;;;;;2.28;1.10;;;;;;;18.78;52.68;102582.63;4812519;29;20380;-75
2020/12/25 08:32:30;;;;;;;2.72;1.83;;;;;;;18.86;52.36;102588.91;4807166;29;20452;-75
2020/12/25 08:35:16;;;;;;;1.83;0.68;;;;;;;18.86;52.60;102591.53;4806142;29;20043;-75
2020/12/25 08:38:11;;;;;;;2.17;0.82;;;;;;;18.83;52.71;102595.81;4805580;29;20118;-74
2020/12/25 08:40:37;;;;;;;1.45;0.80;;;;;;;18.89;52.47;102593.34;4793674;29;20133;-74
2020/12/25 08:43:13;;;;;;;1.83;0.85;;;;;;;18.86;52.45;102582.78;4805733;29;20154;-76
2020/12/25 08:45:55;;;;;;;1.27;0.70;;;;;;;18.83;52.66;102580.97;4805499;29;20387;-72
2020/12/25 08:48:21;;;;;;;1.25;0.90;;;;;;;18.90;52.33;102575.03;4804034;29;20039;-72
2020/12/25 08:50:47;;;;;;;1.58;0.70;;;;;;;18.88;52.48;102570.59;4815624;29;20095;-72
2020/12/25 08:53:21;;;;;;;1.15;0.70;;;;;;;18.82;52.49;102568.75;4794716;29;20039;-72
2020/12/25 08:55:54;;;;;;;1.63;1.02;;;;;;;18.85;52.43;102560.91;4804693;29;20088;-72
2020/12/25 08:58:22;;;;;;;;;;;;;;;18.95;52.47;102580.38;4816058;29;20046;-73
2020/12/25 09:01:01;;;;;;;3.25;1.00;;;;;;;19.01;52.18;102584.84;4805336;29;19956;-74
2020/12/25 09:03:56;;;;;;;4.93;0.80;;;;;;;19.08;52.31;102589.38;4789864;29;20083;-73
2020/12/25 09:06:22;;;;;;;4.65;0.98;;;;;;;19.01;52.26;102571.72;4799667;29;20058;-73
2020/12/25 09:08:47;;;;;;;4.07;1.10;;;;;;;18.86;51.69;102572.28;4824862;29;20508;-73
2020/12/25 09:11:18;;;;;;;1.60;1.10;;;;;;;18.87;52.40;102584.56;4817695;29;20043;-77
2020/12/25 09:13:44;;;;;;;1.27;0.70;;;;;;;18.96;52.26;102587.34;4802395;29;20556;-77
2020/12/25 09:16:10;;;;;;;1.80;0.82;;;;;;;18.95;52.02;102585.63;4806053;29;20034;-73
2020/12/25 09:18:37;;;;;;;2.75;1.08;;;;;;;18.97;51.71;102588.25;4796888;29;20034;-73
2020/12/25 09:21:04;;;;;;;3.90;0.90;;;;;;;18.89;51.76;102585.47;4805019;29;20117;-73
2020/12/25 09:23:29;;;;;;;2.78;1.20;;;;;;;18.92;51.97;102596.91;4798775;29;20034;-73
2020/12/25 09:25:55;;;;;;;2.47;1.10;;;;;;;18.95;51.57;102592.59;4808175;29;20041;-73
2020/12/25 09:28:24;;;;;;;6.03;1.58;;;;;;;18.92;51.17;102590.78;4804381;29;20086;-72
2020/12/25 09:30:50;;;;;;;6.05;1.60;;;;;;;18.97;51.33;102599.59;4790840;29;20130;-73
2020/12/25 09:33:15;;;;;;;3.65;1.55;;;;;;;19.04;51.40;102600.63;4804920;29;20041;-75
2020/12/25 09:35:41;;;;;;;6.78;2.33;;;;;;;19.03;51.30;102599.75;4791639;29;20113;-77
2020/12/25 09:38:06;;;;;;;8.57;2.13;;;;;;;19.02;51.35;102597.97;4772077;30;20404;-75
2020/12/25 09:40:31;;;;;;;6.43;1.60;;;;;;;19.08;51.40;102594.63;4809286;29;20046;-75
2020/12/25 09:42:57;;;;;;;6.45;1.60;;;;;;;19.01;51.20;102590.97;4788581;30;20122;-75
2020/12/25 09:45:22;;;;;;;8.10;2.20;;;;;;;18.99;51.54;102589.16;4817553;29;20035;-76
2020/12/25 09:47:47;;;;;;;5.85;1.88;;;;;;;19.05;51.56;102589.31;4805277;29;20039;-75
2020/12/25 09:50:13;;;;;;;5.45;2.33;;;;;;;19.06;51.21;102591.06;4806407;29;20042;-73
2020/12/25 09:52:38;;;;;;;4.43;2.17;;;;;;;19.04;51.13;102595.41;4802013;29;20051;-73
2020/12/25 09:55:04;;;;;;;2.88;1.33;;;;;;;19.08;51.48;102600.75;4788381;30;20028;-73
2020/12/25 09:57:30;;;;;;;4.32;1.95;;;;;;;19.09;50.97;102593.72;4788017;29;20041;-76
2020/12/25 09:59:55;;;;;;;5.47;1.85;;;;;;;19.07;51.06;102600.72;4805899;29;20031;-75
2020/12/25 10:02:21;;;;;;;5.45;1.90;;;;;;;19.07;51.31;102598.97;4805100;29;20532;-75
2020/12/25 10:04:47;;;;;;;3.05;1.55;;;;;;;19.12;50.93;102589.44;4805065;29;20059;-76
2020/12/25 10:07:12;;;;;;;4.20;1.48;;;;;;;19.12;51.19;102606.91;4805290;29;20104;-76
2020/12/25 10:09:38;;;;;;;5.25;1.67;;;;;;;19.11;51.26;102602.53;4805096;29;20050;-75
2020/12/25 10:12:04;;;;;;;3.72;1.92;;;;;;;19.14;51.07;102608.72;4791341;29;20041;-76
2020/12/25 10:14:29;;;;;;;8.68;1.70;;;;;;;19.14;50.78;102611.34;4790609;29;20043;-75
2020/12/25 10:16:55;;;;;;;3.22;1.60;;;;;;;19.03;51.14;102601.50;4790184;29;20121;-75
2020/12/25 10:19:20;;;;;;;2.63;1.38;;;;;;;19.14;51.48;102606.09;4805322;29;20544;-76
2020/12/25 10:21:45;;;;;;;4.55;1.48;;;;;;;19.15;50.76;102601.75;4775127;29;20101;-73
2020/12/25 10:24:11;;;;;;;2.85;1.60;;;;;;;19.12;51.06;102612.16;4798850;29;20406;-73
2020/12/25 10:26:36;;;;;;;2.22;1.38;;;;;;;19.17;51.05;102610.53;4780412;29;20045;-73
2020/12/25 10:29:01;;;;;;;4.47;1.50;;;;;;;19.22;50.73;102619.34;4805330;29;20081;-73
2020/12/25 10:31:27;;;;;;;4.15;2.47;;;;;;;19.15;50.77;102613.13;4805448;29;20034;-73
2020/12/25 10:33:52;;;;;;;4.20;1.63;;;;;;;19.11;50.88;102603.41;4797150;29;20039;-74
2020/12/25 10:36:23;;;;;;;2.03;1.02;;;;;;;19.21;50.78;102609.75;4790856;29;20079;-73
2020/12/25 10:38:48;;;;;;;5.85;2.30;;;;;;;19.12;50.78;102597.31;4805740;29;20046;-73
2020/12/25 10:41:13;;;;;;;2.45;1.30;;;;;;;19.13;50.92;102600.81;4789649;29;20069;-73
2020/12/25 10:43:39;;;;;;;2.55;1.15;;;;;;;19.15;50.70;102596.50;4775025;29;20084;-73
2020/12/25 10:46:04;;;;;;;4.18;1.52;;;;;;;19.16;50.71;102600.88;4806019;29;20072;-73
2020/12/25 10:48:29;;;;;;;4.13;2.10;;;;;;;19.17;50.72;102607.91;4774496;29;20027;-73
2020/12/25 10:50:55;;;;;;;2.47;1.08;;;;;;;19.26;50.62;102616.84;4803395;29;20043;-73
2020/12/25 10:53:20;;;;;;;2.35;1.35;;;;;;;19.20;50.60;102614.09;4819974;29;20220;-73
2020/12/25 10:55:45;;;;;;;3.40;1.63;;;;;;;19.15;50.78;102612.22;4773990;29;20043;-74
2020/12/25 10:58:11;;;;;;;3.42;1.15;;;;;;;19.15;51.00;102618.34;4775268;29;20041;-73
2020/12/25 11:00:36;;;;;;;2.38;0.85;;;;;;;19.09;50.87;102627.81;4806083;29;20073;-73
2020/12/25 11:03:01;;;;;;;2.58;1.17;;;;;;;19.06;51.05;102657.50;4800286;29;20075;-73
2020/12/25 11:05:27;;;;;;;3.60;1.48;;;;;;;19.02;50.82;102639.94;4802658;29;20038;-76
2020/12/25 11:07:54;;;;;;;1.90;1.27;;;;;;;18.96;50.86;102641.53;4794469;29;20035;-75
2020/12/25 11:10:19;;;;;;;4.30;1.30;;;;;;;18.90;51.26;102637.06;4789790;29;20035;-73
2020/12/25 11:12:45;;;;;;;2.22;1.10;;;;;;;18.88;51.19;102630.88;4796459;29;20058;-73
2020/12/25 11:15:10;;;;;;;2.05;1.02;;;;;;;18.91;51.39;102644.06;4798741;29;20034;-73
2020/12/25 11:17:35;;;;;;;2.80;1.00;;;;;;;18.80;51.38;102622.88;4804266;29;20098;-73
2020/12/25 11:20:01;;;;;;;2.72;1.00;;;;;;;18.84;51.39;102627.31;4777988;29;20125;-73
2020/12/25 11:22:26;;;;;;;3.88;2.05;;;;;;;18.87;51.32;102636.97;4802844;29;20027;-73
2020/12/25 11:24:51;;;;;;;3.83;1.85;;;;;;;18.83;51.51;102632.50;4765719;29;20035;-74